mardi 15 avril 2014

ALERTE SPOTTING 15/04/14

73H D-AHFS Air Berlin (blanc avec titre)
   AB8154/AB8155  07h55/08h45

CNJ  arv 16h00

320 F-GHQE Air Corsica (blanc avec titre)
   XK4503/XK4502   11h50/12h55
  XK4505/XK4504  20h15/21h20


E95 EC-LFZ Air Europa (sticker)
   arv  UX1002  22h25



Manque les prévisions/immats BE / certains AB / IB / AZ / TP / TU / BA / AH / KM
*** Heures en Local Time **
Prévisions matinales soumises à modifications de dernières minute. Voir le log du mois pour la version 'définitive' de la journée: http://www.airkalo.com/ORLYAVIATION/Logdumois.html

le TAF de la journée:
METAR: LFPO 150230Z 04009KT CAVOK 06/01 Q1026 NOSIG=
TAF LONG: LFPO 142300Z 1500/1606 04010KT CAVOK TEMPO 1508/1511 SCT035=